sensor_id;sensor_type;location;lat;lon;timestamp;temperature;humidity
21662;DHT22;10992;48.170;8.596;2023-09-19T00:00:44;13.60;99.90
21662;DHT22;10992;48.170;8.596;2023-09-19T00:03:14;13.60;99.90
21662;DHT22;10992;48.170;8.596;2023-09-19T00:05:42;13.60;99.90
21662;DHT22;10992;48.170;8.596;2023-09-19T00:08:13;13.60;99.90
21662;DHT22;10992;48.170;8.596;2023-09-19T00:10:41;13.60;99.90
21662;DHT22;10992;48.170;8.596;2023-09-19T00:13:09;13.60;99.90
21662;DHT22;10992;48.170;8.596;2023-09-19T00:15:43;13.60;99.90
21662;DHT22;10992;48.170;8.596;2023-09-19T00:18:15;13.60;99.90
21662;DHT22;10992;48.170;8.596;2023-09-19T00:20:43;13.60;99.90
21662;DHT22;10992;48.170;8.596;2023-09-19T00:23:14;13.50;99.90
21662;DHT22;10992;48.170;8.596;2023-09-19T00:25:41;13.60;99.90
21662;DHT22;10992;48.170;8.596;2023-09-19T00:28:09;13.60;99.90
21662;DHT22;10992;48.170;8.596;2023-09-19T00:30:36;13.60;99.90
21662;DHT22;10992;48.170;8.596;2023-09-19T00:33:05;13.60;99.90
21662;DHT22;10992;48.170;8.596;2023-09-19T00:35:34;13.60;99.90
21662;DHT22;10992;48.170;8.596;2023-09-19T00:38:01;13.60;99.90
21662;DHT22;10992;48.170;8.596;2023-09-19T00:40:29;13.60;99.90
21662;DHT22;10992;48.170;8.596;2023-09-19T00:42:59;13.70;99.90
21662;DHT22;10992;48.170;8.596;2023-09-19T00:45:27;13.70;99.90
21662;DHT22;10992;48.170;8.596;2023-09-19T00:47:55;13.70;99.90
21662;DHT22;10992;48.170;8.596;2023-09-19T00:50:26;13.70;99.90
21662;DHT22;10992;48.170;8.596;2023-09-19T00:52:55;13.80;99.90
21662;DHT22;10992;48.170;8.596;2023-09-19T00:55:25;13.90;99.90
21662;DHT22;10992;48.170;8.596;2023-09-19T00:57:57;13.90;99.90
21662;DHT22;10992;48.170;8.596;2023-09-19T01:00:25;13.90;99.90
21662;DHT22;10992;48.170;8.596;2023-09-19T01:02:52;13.90;99.90
21662;DHT22;10992;48.170;8.596;2023-09-19T01:05:19;13.90;99.90
21662;DHT22;10992;48.170;8.596;2023-09-19T01:07:46;13.90;99.90
21662;DHT22;10992;48.170;8.596;2023-09-19T01:10:18;13.90;99.90
21662;DHT22;10992;48.170;8.596;2023-09-19T01:18:11;13.80;99.90
21662;DHT22;10992;48.170;8.596;2023-09-19T01:20:53;13.80;99.90
21662;DHT22;10992;48.170;8.596;2023-09-19T01:29:08;13.80;99.90
21662;DHT22;10992;48.170;8.596;2023-09-19T01:31:42;13.80;99.90
21662;DHT22;10992;48.170;8.596;2023-09-19T01:34:12;13.70;99.90
21662;DHT22;10992;48.170;8.596;2023-09-19T01:40:27;13.70;99.90
21662;DHT22;10992;48.170;8.596;2023-09-19T01:43:12;13.60;99.90
21662;DHT22;10992;48.170;8.596;2023-09-19T01:48:40;13.60;99.90
21662;DHT22;10992;48.170;8.596;2023-09-19T01:51:10;13.60;99.90
21662;DHT22;10992;48.170;8.596;2023-09-19T01:54:01;13.60;99.90
21662;DHT22;10992;48.170;8.596;2023-09-19T01:56:53;13.50;99.90
21662;DHT22;10992;48.170;8.596;2023-09-19T01:59:26;13.60;99.90
21662;DHT22;10992;48.170;8.596;2023-09-19T02:01:55;13.60;99.90
21662;DHT22;10992;48.170;8.596;2023-09-19T02:04:23;13.60;99.90
21662;DHT22;10992;48.170;8.596;2023-09-19T02:06:50;13.70;99.90
21662;DHT22;10992;48.170;8.596;2023-09-19T02:09:18;13.80;99.90
21662;DHT22;10992;48.170;8.596;2023-09-19T02:11:45;13.80;99.90
21662;DHT22;10992;48.170;8.596;2023-09-19T02:14:13;13.90;99.90
21662;DHT22;10992;48.170;8.596;2023-09-19T02:16:40;13.80;99.90
21662;DHT22;10992;48.170;8.596;2023-09-19T02:19:08;13.80;99.90
21662;DHT22;10992;48.170;8.596;2023-09-19T02:21:35;13.80;99.90
21662;DHT22;10992;48.170;8.596;2023-09-19T02:24:03;13.80;99.90
21662;DHT22;10992;48.170;8.596;2023-09-19T02:26:30;13.80;99.90
21662;DHT22;10992;48.170;8.596;2023-09-19T02:28:57;13.70;99.90
21662;DHT22;10992;48.170;8.596;2023-09-19T02:31:24;13.80;99.90
21662;DHT22;10992;48.170;8.596;2023-09-19T02:33:56;13.80;99.90
21662;DHT22;10992;48.170;8.596;2023-09-19T02:36:23;13.90;99.90
21662;DHT22;10992;48.170;8.596;2023-09-19T02:38:50;13.90;99.90
21662;DHT22;10992;48.170;8.596;2023-09-19T02:41:17;14.00;99.90
21662;DHT22;10992;48.170;8.596;2023-09-19T02:43:44;14.00;99.90
21662;DHT22;10992;48.170;8.596;2023-09-19T02:46:11;14.00;99.90
21662;DHT22;10992;48.170;8.596;2023-09-19T02:48:39;14.00;99.90
21662;DHT22;10992;48.170;8.596;2023-09-19T02:51:06;14.10;99.90
21662;DHT22;10992;48.170;8.596;2023-09-19T02:53:33;14.10;99.90
21662;DHT22;10992;48.170;8.596;2023-09-19T02:56:00;14.10;99.90
21662;DHT22;10992;48.170;8.596;2023-09-19T02:58:27;14.10;99.90
21662;DHT22;10992;48.170;8.596;2023-09-19T03:00:57;14.10;99.90
21662;DHT22;10992;48.170;8.596;2023-09-19T03:03:24;14.10;99.90
21662;DHT22;10992;48.170;8.596;2023-09-19T03:05:52;14.10;99.90
21662;DHT22;10992;48.170;8.596;2023-09-19T03:08:22;14.00;99.90
21662;DHT22;10992;48.170;8.596;2023-09-19T03:10:49;14.00;99.90
21662;DHT22;10992;48.170;8.596;2023-09-19T03:13:16;14.00;99.90
21662;DHT22;10992;48.170;8.596;2023-09-19T03:15:43;14.00;99.90
21662;DHT22;10992;48.170;8.596;2023-09-19T03:18:14;14.00;99.90
21662;DHT22;10992;48.170;8.596;2023-09-19T03:20:40;13.90;99.90
21662;DHT22;10992;48.170;8.596;2023-09-19T03:23:07;13.90;99.90
21662;DHT22;10992;48.170;8.596;2023-09-19T03:25:35;13.90;99.90
21662;DHT22;10992;48.170;8.596;2023-09-19T03:28:03;13.80;99.90
21662;DHT22;10992;48.170;8.596;2023-09-19T03:30:33;13.90;99.90
21662;DHT22;10992;48.170;8.596;2023-09-19T03:33:03;13.90;99.90
21662;DHT22;10992;48.170;8.596;2023-09-19T03:35:32;13.90;99.90
21662;DHT22;10992;48.170;8.596;2023-09-19T03:37:59;13.90;99.90
21662;DHT22;10992;48.170;8.596;2023-09-19T03:40:28;13.80;99.90
21662;DHT22;10992;48.170;8.596;2023-09-19T03:42:55;13.80;99.90
21662;DHT22;10992;48.170;8.596;2023-09-19T03:45:23;13.80;99.90
21662;DHT22;10992;48.170;8.596;2023-09-19T03:47:51;13.80;99.90
21662;DHT22;10992;48.170;8.596;2023-09-19T03:50:21;13.70;99.90
21662;DHT22;10992;48.170;8.596;2023-09-19T03:52:49;13.70;99.90
21662;DHT22;10992;48.170;8.596;2023-09-19T03:55:17;13.70;99.90
21662;DHT22;10992;48.170;8.596;2023-09-19T03:57:48;13.70;99.90
21662;DHT22;10992;48.170;8.596;2023-09-19T04:00:19;13.70;99.90
21662;DHT22;10992;48.170;8.596;2023-09-19T04:02:48;13.70;99.90
21662;DHT22;10992;48.170;8.596;2023-09-19T04:05:16;13.70;99.90
21662;DHT22;10992;48.170;8.596;2023-09-19T04:07:43;13.70;99.90
21662;DHT22;10992;48.170;8.596;2023-09-19T04:10:11;13.60;99.90
21662;DHT22;10992;48.170;8.596;2023-09-19T04:12:38;13.60;99.90
21662;DHT22;10992;48.170;8.596;2023-09-19T04:15:06;13.60;99.90
21662;DHT22;10992;48.170;8.596;2023-09-19T04:17:33;13.60;99.90
21662;DHT22;10992;48.170;8.596;2023-09-19T04:20:01;13.50;99.90
21662;DHT22;10992;48.170;8.596;2023-09-19T04:22:28;13.50;99.90
21662;DHT22;10992;48.170;8.596;2023-09-19T04:24:54;13.50;99.90
21662;DHT22;10992;48.170;8.596;2023-09-19T04:27:22;13.60;99.90
21662;DHT22;10992;48.170;8.596;2023-09-19T04:29:49;13.50;99.90
21662;DHT22;10992;48.170;8.596;2023-09-19T04:32:18;13.50;99.90
21662;DHT22;10992;48.170;8.596;2023-09-19T04:34:45;13.60;99.90
21662;DHT22;10992;48.170;8.596;2023-09-19T04:37:11;13.60;99.90
21662;DHT22;10992;48.170;8.596;2023-09-19T04:39:42;13.60;99.90
21662;DHT22;10992;48.170;8.596;2023-09-19T04:42:09;13.60;99.90
21662;DHT22;10992;48.170;8.596;2023-09-19T04:44:38;13.50;99.90
21662;DHT22;10992;48.170;8.596;2023-09-19T04:47:06;13.50;99.90
21662;DHT22;10992;48.170;8.596;2023-09-19T04:49:33;13.40;99.90
21662;DHT22;10992;48.170;8.596;2023-09-19T04:52:01;13.30;99.90
21662;DHT22;10992;48.170;8.596;2023-09-19T04:54:28;13.30;99.90
21662;DHT22;10992;48.170;8.596;2023-09-19T04:56:55;13.20;99.90
21662;DHT22;10992;48.170;8.596;2023-09-19T04:59:22;13.10;99.90
21662;DHT22;10992;48.170;8.596;2023-09-19T05:01:50;13.10;99.90
21662;DHT22;10992;48.170;8.596;2023-09-19T05:04:16;13.10;99.90
21662;DHT22;10992;48.170;8.596;2023-09-19T05:06:44;13.10;99.90
21662;DHT22;10992;48.170;8.596;2023-09-19T05:09:12;13.20;99.90
21662;DHT22;10992;48.170;8.596;2023-09-19T05:11:40;13.20;99.90
21662;DHT22;10992;48.170;8.596;2023-09-19T05:14:07;13.20;99.90
21662;DHT22;10992;48.170;8.596;2023-09-19T05:16:34;13.30;99.90
21662;DHT22;10992;48.170;8.596;2023-09-19T05:19:02;13.30;99.90
21662;DHT22;10992;48.170;8.596;2023-09-19T05:21:30;13.40;99.90
21662;DHT22;10992;48.170;8.596;2023-09-19T05:23:57;13.50;99.90
21662;DHT22;10992;48.170;8.596;2023-09-19T05:26:24;13.60;99.90
21662;DHT22;10992;48.170;8.596;2023-09-19T05:28:51;13.70;99.90
21662;DHT22;10992;48.170;8.596;2023-09-19T05:31:19;13.90;99.90
21662;DHT22;10992;48.170;8.596;2023-09-19T05:33:47;14.30;99.90
21662;DHT22;10992;48.170;8.596;2023-09-19T05:36:14;14.50;99.90
21662;DHT22;10992;48.170;8.596;2023-09-19T05:38:43;14.70;99.90
21662;DHT22;10992;48.170;8.596;2023-09-19T05:41:11;15.00;99.90
21662;DHT22;10992;48.170;8.596;2023-09-19T05:43:41;15.10;99.90
21662;DHT22;10992;48.170;8.596;2023-09-19T05:46:08;15.40;99.90
21662;DHT22;10992;48.170;8.596;2023-09-19T05:48:36;15.70;99.90
21662;DHT22;10992;48.170;8.596;2023-09-19T05:51:03;15.70;99.90
21662;DHT22;10992;48.170;8.596;2023-09-19T05:53:31;15.60;99.90
21662;DHT22;10992;48.170;8.596;2023-09-19T05:55:58;15.50;99.90
21662;DHT22;10992;48.170;8.596;2023-09-19T05:58:25;15.50;99.90
21662;DHT22;10992;48.170;8.596;2023-09-19T06:00:52;15.20;99.90
21662;DHT22;10992;48.170;8.596;2023-09-19T06:03:19;15.00;99.90
21662;DHT22;10992;48.170;8.596;2023-09-19T06:05:47;14.80;99.90
21662;DHT22;10992;48.170;8.596;2023-09-19T06:08:16;14.70;99.90
21662;DHT22;10992;48.170;8.596;2023-09-19T06:10:43;14.60;99.90
21662;DHT22;10992;48.170;8.596;2023-09-19T06:13:10;14.40;99.90
21662;DHT22;10992;48.170;8.596;2023-09-19T06:15:37;14.40;99.90
21662;DHT22;10992;48.170;8.596;2023-09-19T06:18:04;14.40;99.90
21662;DHT22;10992;48.170;8.596;2023-09-19T06:20:32;14.50;99.90
21662;DHT22;10992;48.170;8.596;2023-09-19T06:23:00;14.80;99.90
21662;DHT22;10992;48.170;8.596;2023-09-19T06:25:29;15.70;99.90
21662;DHT22;10992;48.170;8.596;2023-09-19T06:27:56;16.40;99.90
21662;DHT22;10992;48.170;8.596;2023-09-19T06:30:24;16.30;99.90
21662;DHT22;10992;48.170;8.596;2023-09-19T06:32:59;15.80;99.90
21662;DHT22;10992;48.170;8.596;2023-09-19T06:35:28;15.50;99.90
21662;DHT22;10992;48.170;8.596;2023-09-19T06:38:03;15.20;99.90
21662;DHT22;10992;48.170;8.596;2023-09-19T06:40:30;15.10;99.90
21662;DHT22;10992;48.170;8.596;2023-09-19T06:42:58;15.10;99.90
21662;DHT22;10992;48.170;8.596;2023-09-19T06:45:25;15.00;99.90
21662;DHT22;10992;48.170;8.596;2023-09-19T06:47:54;14.90;99.90
21662;DHT22;10992;48.170;8.596;2023-09-19T06:50:26;14.80;99.90
21662;DHT22;10992;48.170;8.596;2023-09-19T06:52:55;14.80;99.90
21662;DHT22;10992;48.170;8.596;2023-09-19T06:55:24;14.70;99.90
21662;DHT22;10992;48.170;8.596;2023-09-19T06:57:55;14.60;99.90
21662;DHT22;10992;48.170;8.596;2023-09-19T07:00:22;14.60;99.90
21662;DHT22;10992;48.170;8.596;2023-09-19T07:03:06;14.50;99.90
21662;DHT22;10992;48.170;8.596;2023-09-19T07:05:39;14.50;99.90
21662;DHT22;10992;48.170;8.596;2023-09-19T07:08:08;14.40;99.90
21662;DHT22;10992;48.170;8.596;2023-09-19T07:10:38;14.50;99.90
21662;DHT22;10992;48.170;8.596;2023-09-19T07:13:08;14.50;99.90
21662;DHT22;10992;48.170;8.596;2023-09-19T07:15:38;14.60;99.90
21662;DHT22;10992;48.170;8.596;2023-09-19T07:18:07;14.70;99.90
21662;DHT22;10992;48.170;8.596;2023-09-19T07:20:36;14.80;99.90
21662;DHT22;10992;48.170;8.596;2023-09-19T07:23:03;15.00;99.90
21662;DHT22;10992;48.170;8.596;2023-09-19T07:25:30;15.20;99.90
21662;DHT22;10992;48.170;8.596;2023-09-19T07:27:58;15.20;99.90
21662;DHT22;10992;48.170;8.596;2023-09-19T07:30:28;14.80;99.90
21662;DHT22;10992;48.170;8.596;2023-09-19T07:32:55;14.20;99.90
21662;DHT22;10992;48.170;8.596;2023-09-19T07:35:22;13.80;99.90
21662;DHT22;10992;48.170;8.596;2023-09-19T07:37:49;13.60;99.90
21662;DHT22;10992;48.170;8.596;2023-09-19T07:40:20;13.40;99.90
21662;DHT22;10992;48.170;8.596;2023-09-19T07:42:50;13.40;99.90
21662;DHT22;10992;48.170;8.596;2023-09-19T07:45:17;13.30;99.90
21662;DHT22;10992;48.170;8.596;2023-09-19T07:47:48;13.50;99.90
21662;DHT22;10992;48.170;8.596;2023-09-19T07:50:17;13.80;99.90
21662;DHT22;10992;48.170;8.596;2023-09-19T07:52:46;14.50;99.90
21662;DHT22;10992;48.170;8.596;2023-09-19T07:55:14;15.40;99.90
21662;DHT22;10992;48.170;8.596;2023-09-19T07:57:44;16.40;99.90
21662;DHT22;10992;48.170;8.596;2023-09-19T08:00:11;17.00;99.90
21662;DHT22;10992;48.170;8.596;2023-09-19T08:02:42;18.90;99.90
21662;DHT22;10992;48.170;8.596;2023-09-19T08:05:10;21.10;99.90
21662;DHT22;10992;48.170;8.596;2023-09-19T08:07:43;21.60;99.90
21662;DHT22;10992;48.170;8.596;2023-09-19T08:10:10;20.90;99.90
21662;DHT22;10992;48.170;8.596;2023-09-19T08:12:40;20.60;99.90
21662;DHT22;10992;48.170;8.596;2023-09-19T08:15:14;21.50;99.90
21662;DHT22;10992;48.170;8.596;2023-09-19T08:17:41;22.80;99.90
21662;DHT22;10992;48.170;8.596;2023-09-19T08:20:10;23.60;99.90
21662;DHT22;10992;48.170;8.596;2023-09-19T08:22:48;23.60;99.90
21662;DHT22;10992;48.170;8.596;2023-09-19T08:25:16;23.20;99.90
21662;DHT22;10992;48.170;8.596;2023-09-19T08:27:46;22.50;99.90
21662;DHT22;10992;48.170;8.596;2023-09-19T08:30:18;22.00;99.90
21662;DHT22;10992;48.170;8.596;2023-09-19T08:32:45;21.30;99.90
21662;DHT22;10992;48.170;8.596;2023-09-19T08:35:13;21.20;99.90
21662;DHT22;10992;48.170;8.596;2023-09-19T08:37:42;21.80;99.90
21662;DHT22;10992;48.170;8.596;2023-09-19T08:40:10;21.90;99.90
21662;DHT22;10992;48.170;8.596;2023-09-19T08:42:50;22.60;99.90
21662;DHT22;10992;48.170;8.596;2023-09-19T08:45:17;23.00;99.90
21662;DHT22;10992;48.170;8.596;2023-09-19T08:50:27;24.10;99.90
21662;DHT22;10992;48.170;8.596;2023-09-19T08:53:01;23.20;99.90
21662;DHT22;10992;48.170;8.596;2023-09-19T08:55:29;21.90;99.90
21662;DHT22;10992;48.170;8.596;2023-09-19T08:58:02;21.70;99.90
21662;DHT22;10992;48.170;8.596;2023-09-19T09:00:30;21.80;99.90
21662;DHT22;10992;48.170;8.596;2023-09-19T09:02:58;22.40;99.90
21662;DHT22;10992;48.170;8.596;2023-09-19T09:05:27;22.40;99.90
21662;DHT22;10992;48.170;8.596;2023-09-19T09:07:55;21.80;99.90
21662;DHT22;10992;48.170;8.596;2023-09-19T09:10:23;21.90;99.90
21662;DHT22;10992;48.170;8.596;2023-09-19T09:12:52;21.80;99.90
21662;DHT22;10992;48.170;8.596;2023-09-19T09:15:21;22.00;99.90
21662;DHT22;10992;48.170;8.596;2023-09-19T09:17:51;22.30;99.90
21662;DHT22;10992;48.170;8.596;2023-09-19T09:20:20;22.80;99.90
21662;DHT22;10992;48.170;8.596;2023-09-19T09:22:54;23.40;99.90
21662;DHT22;10992;48.170;8.596;2023-09-19T09:25:22;23.10;99.90
21662;DHT22;10992;48.170;8.596;2023-09-19T09:28:02;22.80;99.90
21662;DHT22;10992;48.170;8.596;2023-09-19T09:30:36;23.70;99.90
21662;DHT22;10992;48.170;8.596;2023-09-19T09:33:08;24.80;99.90
21662;DHT22;10992;48.170;8.596;2023-09-19T09:35:52;23.60;99.90
21662;DHT22;10992;48.170;8.596;2023-09-19T09:38:20;22.50;99.90
21662;DHT22;10992;48.170;8.596;2023-09-19T09:40:49;21.80;99.90
21662;DHT22;10992;48.170;8.596;2023-09-19T09:43:39;21.30;99.90
21662;DHT22;10992;48.170;8.596;2023-09-19T09:46:11;22.80;99.90
21662;DHT22;10992;48.170;8.596;2023-09-19T09:49:01;22.70;99.90
21662;DHT22;10992;48.170;8.596;2023-09-19T09:54:38;22.30;99.90
21662;DHT22;10992;48.170;8.596;2023-09-19T09:57:10;22.30;99.90
21662;DHT22;10992;48.170;8.596;2023-09-19T09:59:53;22.20;99.90
21662;DHT22;10992;48.170;8.596;2023-09-19T10:02:26;22.30;99.90
21662;DHT22;10992;48.170;8.596;2023-09-19T10:05:11;22.20;99.90
21662;DHT22;10992;48.170;8.596;2023-09-19T10:07:52;22.60;99.90
21662;DHT22;10992;48.170;8.596;2023-09-19T10:10:37;22.70;99.90
21662;DHT22;10992;48.170;8.596;2023-09-19T10:13:11;23.20;99.90
21662;DHT22;10992;48.170;8.596;2023-09-19T10:15:43;22.90;99.90
21662;DHT22;10992;48.170;8.596;2023-09-19T10:18:24;22.70;99.90
21662;DHT22;10992;48.170;8.596;2023-09-19T10:20:52;22.90;99.90
21662;DHT22;10992;48.170;8.596;2023-09-19T10:23:20;23.20;99.90
21662;DHT22;10992;48.170;8.596;2023-09-19T10:25:52;23.50;99.90
21662;DHT22;10992;48.170;8.596;2023-09-19T10:28:20;23.90;99.90
21662;DHT22;10992;48.170;8.596;2023-09-19T10:30:52;24.10;99.90
21662;DHT22;10992;48.170;8.596;2023-09-19T10:33:22;23.60;99.90
21662;DHT22;10992;48.170;8.596;2023-09-19T10:35:50;22.70;99.90
21662;DHT22;10992;48.170;8.596;2023-09-19T10:38:24;23.00;99.90
21662;DHT22;10992;48.170;8.596;2023-09-19T10:40:53;23.00;99.90
21662;DHT22;10992;48.170;8.596;2023-09-19T10:43:23;23.40;99.90
21662;DHT22;10992;48.170;8.596;2023-09-19T10:45:53;23.10;99.90
21662;DHT22;10992;48.170;8.596;2023-09-19T10:48:24;23.50;99.90
21662;DHT22;10992;48.170;8.596;2023-09-19T10:54:13;23.60;99.90
21662;DHT22;10992;48.170;8.596;2023-09-19T10:56:46;23.90;99.90
21662;DHT22;10992;48.170;8.596;2023-09-19T10:59:20;24.20;99.90
21662;DHT22;10992;48.170;8.596;2023-09-19T11:01:50;24.90;99.90
21662;DHT22;10992;48.170;8.596;2023-09-19T11:07:06;24.70;99.90
21662;DHT22;10992;48.170;8.596;2023-09-19T11:09:46;24.30;99.90
21662;DHT22;10992;48.170;8.596;2023-09-19T11:15:08;22.90;99.90
21662;DHT22;10992;48.170;8.596;2023-09-19T11:17:38;22.80;99.90
21662;DHT22;10992;48.170;8.596;2023-09-19T11:33:20;24.00;99.90
21662;DHT22;10992;48.170;8.596;2023-09-19T11:36:11;24.10;99.90
21662;DHT22;10992;48.170;8.596;2023-09-19T11:49:19;24.90;99.90
21662;DHT22;10992;48.170;8.596;2023-09-19T11:51:53;24.60;99.90
21662;DHT22;10992;48.170;8.596;2023-09-19T11:54:21;24.10;99.90
21662;DHT22;10992;48.170;8.596;2023-09-19T11:56:52;23.90;99.90
21662;DHT22;10992;48.170;8.596;2023-09-19T11:59:22;24.10;99.90
21662;DHT22;10992;48.170;8.596;2023-09-19T12:02:06;23.60;99.90
21662;DHT22;10992;48.170;8.596;2023-09-19T12:07:10;23.80;99.90
21662;DHT22;10992;48.170;8.596;2023-09-19T12:09:43;23.40;99.90
21662;DHT22;10992;48.170;8.596;2023-09-19T12:12:24;23.50;99.90
21662;DHT22;10992;48.170;8.596;2023-09-19T12:14:55;23.60;99.90
21662;DHT22;10992;48.170;8.596;2023-09-19T12:17:38;23.40;99.90
21662;DHT22;10992;48.170;8.596;2023-09-19T12:20:09;22.90;99.90
21662;DHT22;10992;48.170;8.596;2023-09-19T12:22:41;23.00;99.90
21662;DHT22;10992;48.170;8.596;2023-09-19T12:25:10;23.10;99.90
21662;DHT22;10992;48.170;8.596;2023-09-19T12:27:45;23.20;99.90
21662;DHT22;10992;48.170;8.596;2023-09-19T12:30:19;23.70;99.90
21662;DHT22;10992;48.170;8.596;2023-09-19T12:32:53;24.00;99.90
21662;DHT22;10992;48.170;8.596;2023-09-19T12:37:57;24.90;99.90
21662;DHT22;10992;48.170;8.596;2023-09-19T12:40:24;25.00;99.90
21662;DHT22;10992;48.170;8.596;2023-09-19T12:42:57;24.50;99.90
21662;DHT22;10992;48.170;8.596;2023-09-19T12:45:31;24.20;99.90
21662;DHT22;10992;48.170;8.596;2023-09-19T12:48:18;23.70;99.90
21662;DHT22;10992;48.170;8.596;2023-09-19T12:51:07;23.60;99.90
21662;DHT22;10992;48.170;8.596;2023-09-19T12:53:40;23.80;99.90
21662;DHT22;10992;48.170;8.596;2023-09-19T12:56:13;23.70;99.90
21662;DHT22;10992;48.170;8.596;2023-09-19T12:58:57;23.70;99.90
21662;DHT22;10992;48.170;8.596;2023-09-19T13:01:26;23.80;99.90
21662;DHT22;10992;48.170;8.596;2023-09-19T13:04:19;23.80;99.90
21662;DHT22;10992;48.170;8.596;2023-09-19T13:06:50;23.90;99.90
21662;DHT22;10992;48.170;8.596;2023-09-19T13:09:20;23.60;99.90
21662;DHT22;10992;48.170;8.596;2023-09-19T13:11:47;23.60;99.90
21662;DHT22;10992;48.170;8.596;2023-09-19T13:17:04;23.80;99.90
21662;DHT22;10992;48.170;8.596;2023-09-19T13:25:17;23.80;99.90
21662;DHT22;10992;48.170;8.596;2023-09-19T13:27:51;23.50;99.90
21662;DHT22;10992;48.170;8.596;2023-09-19T13:30:20;23.50;99.90
21662;DHT22;10992;48.170;8.596;2023-09-19T13:32:47;23.80;99.90
21662;DHT22;10992;48.170;8.596;2023-09-19T13:35:15;23.90;99.90
21662;DHT22;10992;48.170;8.596;2023-09-19T13:37:43;24.10;99.90
21662;DHT22;10992;48.170;8.596;2023-09-19T13:40:13;23.90;99.90
21662;DHT22;10992;48.170;8.596;2023-09-19T13:42:41;23.90;99.90
21662;DHT22;10992;48.170;8.596;2023-09-19T13:45:08;23.80;99.90
21662;DHT22;10992;48.170;8.596;2023-09-19T13:47:39;23.70;99.90
21662;DHT22;10992;48.170;8.596;2023-09-19T13:50:07;23.90;99.90
21662;DHT22;10992;48.170;8.596;2023-09-19T13:52:35;23.80;99.90
21662;DHT22;10992;48.170;8.596;2023-09-19T13:55:02;23.90;99.90
21662;DHT22;10992;48.170;8.596;2023-09-19T13:57:29;23.90;99.90
21662;DHT22;10992;48.170;8.596;2023-09-19T13:59:56;24.00;99.90
21662;DHT22;10992;48.170;8.596;2023-09-19T14:02:23;23.60;99.90
21662;DHT22;10992;48.170;8.596;2023-09-19T14:04:52;23.60;99.90
21662;DHT22;10992;48.170;8.596;2023-09-19T14:07:19;23.50;99.90
21662;DHT22;10992;48.170;8.596;2023-09-19T14:09:47;23.10;99.90
21662;DHT22;10992;48.170;8.596;2023-09-19T14:12:15;22.80;99.90
21662;DHT22;10992;48.170;8.596;2023-09-19T14:14:42;22.70;99.90
21662;DHT22;10992;48.170;8.596;2023-09-19T14:17:09;22.90;99.90
21662;DHT22;10992;48.170;8.596;2023-09-19T14:19:36;22.80;99.90
21662;DHT22;10992;48.170;8.596;2023-09-19T14:22:04;22.60;99.90
21662;DHT22;10992;48.170;8.596;2023-09-19T14:24:35;23.00;99.90
21662;DHT22;10992;48.170;8.596;2023-09-19T14:27:03;23.40;99.90
21662;DHT22;10992;48.170;8.596;2023-09-19T14:29:31;23.80;99.90
21662;DHT22;10992;48.170;8.596;2023-09-19T14:31:58;24.10;99.90
21662;DHT22;10992;48.170;8.596;2023-09-19T14:34:26;23.70;99.90
21662;DHT22;10992;48.170;8.596;2023-09-19T14:36:53;23.70;99.90
21662;DHT22;10992;48.170;8.596;2023-09-19T14:39:21;23.40;99.90
21662;DHT22;10992;48.170;8.596;2023-09-19T14:41:48;23.10;99.90
21662;DHT22;10992;48.170;8.596;2023-09-19T14:44:16;23.00;99.90
21662;DHT22;10992;48.170;8.596;2023-09-19T14:46:43;23.00;99.90
21662;DHT22;10992;48.170;8.596;2023-09-19T14:49:13;23.00;99.90
21662;DHT22;10992;48.170;8.596;2023-09-19T14:51:43;22.60;99.90
21662;DHT22;10992;48.170;8.596;2023-09-19T14:54:14;22.30;99.90
21662;DHT22;10992;48.170;8.596;2023-09-19T14:56:44;22.40;99.90
21662;DHT22;10992;48.170;8.596;2023-09-19T14:59:11;22.40;99.90
21662;DHT22;10992;48.170;8.596;2023-09-19T15:01:39;22.60;99.90
21662;DHT22;10992;48.170;8.596;2023-09-19T15:04:08;22.70;99.90
21662;DHT22;10992;48.170;8.596;2023-09-19T15:06:35;22.90;99.90
21662;DHT22;10992;48.170;8.596;2023-09-19T15:09:02;22.90;99.90
21662;DHT22;10992;48.170;8.596;2023-09-19T15:11:31;22.90;99.90
21662;DHT22;10992;48.170;8.596;2023-09-19T15:13:58;22.80;99.90
21662;DHT22;10992;48.170;8.596;2023-09-19T15:16:26;22.80;99.90
21662;DHT22;10992;48.170;8.596;2023-09-19T15:18:54;22.60;99.90
21662;DHT22;10992;48.170;8.596;2023-09-19T15:21:22;22.30;99.90
21662;DHT22;10992;48.170;8.596;2023-09-19T15:23:50;22.20;99.90
21662;DHT22;10992;48.170;8.596;2023-09-19T15:26:17;22.00;99.90
21662;DHT22;10992;48.170;8.596;2023-09-19T15:28:48;21.70;99.90
21662;DHT22;10992;48.170;8.596;2023-09-19T15:31:17;21.70;99.90
21662;DHT22;10992;48.170;8.596;2023-09-19T15:33:44;21.70;99.90
21662;DHT22;10992;48.170;8.596;2023-09-19T15:36:12;21.90;99.90
21662;DHT22;10992;48.170;8.596;2023-09-19T15:41:32;21.60;99.90
21662;DHT22;10992;48.170;8.596;2023-09-19T15:44:01;21.50;99.90
21662;DHT22;10992;48.170;8.596;2023-09-19T15:46:30;21.70;99.90
21662;DHT22;10992;48.170;8.596;2023-09-19T15:48:57;21.70;99.90
21662;DHT22;10992;48.170;8.596;2023-09-19T15:51:24;21.70;99.90
21662;DHT22;10992;48.170;8.596;2023-09-19T15:53:52;21.80;99.90
21662;DHT22;10992;48.170;8.596;2023-09-19T15:56:20;21.60;99.90
21662;DHT22;10992;48.170;8.596;2023-09-19T15:58:51;21.60;99.90
21662;DHT22;10992;48.170;8.596;2023-09-19T16:01:18;21.40;99.90
21662;DHT22;10992;48.170;8.596;2023-09-19T16:03:51;21.30;99.90
21662;DHT22;10992;48.170;8.596;2023-09-19T16:06:26;21.10;99.90
21662;DHT22;10992;48.170;8.596;2023-09-19T16:08:55;21.10;99.90
21662;DHT22;10992;48.170;8.596;2023-09-19T16:11:23;21.00;99.90
21662;DHT22;10992;48.170;8.596;2023-09-19T16:13:51;20.80;99.90
21662;DHT22;10992;48.170;8.596;2023-09-19T16:16:20;20.60;99.90
21662;DHT22;10992;48.170;8.596;2023-09-19T16:18:52;20.50;99.90
21662;DHT22;10992;48.170;8.596;2023-09-19T16:21:19;20.40;99.90
21662;DHT22;10992;48.170;8.596;2023-09-19T16:23:47;20.30;99.90
21662;DHT22;10992;48.170;8.596;2023-09-19T16:26:17;20.10;99.90
21662;DHT22;10992;48.170;8.596;2023-09-19T16:28:45;20.00;99.90
21662;DHT22;10992;48.170;8.596;2023-09-19T16:31:13;19.80;99.90
21662;DHT22;10992;48.170;8.596;2023-09-19T16:33:41;19.70;99.90
21662;DHT22;10992;48.170;8.596;2023-09-19T16:36:09;19.60;99.90
21662;DHT22;10992;48.170;8.596;2023-09-19T16:38:37;19.50;99.90
21662;DHT22;10992;48.170;8.596;2023-09-19T16:41:06;19.40;99.90
21662;DHT22;10992;48.170;8.596;2023-09-19T16:43:34;19.30;99.90
21662;DHT22;10992;48.170;8.596;2023-09-19T16:46:05;19.20;99.90
21662;DHT22;10992;48.170;8.596;2023-09-19T16:48:35;19.20;99.90
21662;DHT22;10992;48.170;8.596;2023-09-19T16:51:22;19.10;99.90
21662;DHT22;10992;48.170;8.596;2023-09-19T16:53:49;19.00;99.90
21662;DHT22;10992;48.170;8.596;2023-09-19T16:56:18;18.80;99.90
21662;DHT22;10992;48.170;8.596;2023-09-19T16:58:47;18.70;99.90